Forside
METAR-TAF:

METAR-TAF

Lufthavne :

Menominee-Marinette Twin County Airport

Menominee, Michigan, USA

Breddekreds: 45-08N, længdekreds: 087-38W, højde: 191 m

Aktuelle vejr

Denne rapport blev lavet for 19 minutter siden, kl. 19:56 UTC
Vind 12 kt fra sydvest
Temperatur 3°C
Fugtighed 60%
Tryk 1016 hPa
Sigt: 16.1 km
skyfri

METAR: KMNM 221956Z AUTO 22012KT 10SM CLR 03/M04 A2999 RMK AO2 SLP160 T00331044 $

Tid: 15:15 (20:15 UTC)


TAF: fraværende

Vejrobservationer og prognoser fra mere end 4000 lufthavne (METAR og TAF).

De gule og røde prikker repræsenterer de meteorologiske stationer.

Flyt musen over at se navnet på stationen.

Så klik over at se vejr observationer og prognoser.

At skifte det kort: Klik på de grønne knapper med et sort kors for at zoome ind; på den grønne knap med en bindestreg for at zoome ud; eller på de grønne pile for tilstødende kort.


METAR-TAF: